Time,TemperatureF,DewpointF,PressureIn,WindDirection,WindDirectionDegrees,WindSpeedMPH,WindSpeedGustMPH,Humidity,HourlyPrecipIn,Conditions,Clouds,dailyrainin,SoftwareType,DateUTC
2013-07-01 00:01:00,75.4,70.6,29.84,SSE,157,0.0,5.4,85,0.00,,,0.00,WUHU21623XXSP,2013-07-01 04:01:00,
2013-07-01 00:06:00,75.4,70.6,29.84,South,180,1.8,3.8,85,0.00,,,0.00,WUHU21623XXSP,2013-07-01 04:06:00,
2013-07-01 00:11:00,75.4,70.6,29.83,SE,135,3.6,3.6,85,0.00,,,0.00,WUHU21623XXSP,2013-07-01 04:11:00,
2013-07-01 00:16:00,75.4,70.6,29.84,SSE,157,1.1,7.2,85,0.00,,,0.00,WUHU21623XXSP,2013-07-01 04:16:00,
2013-07-01 00:21:00,75.4,70.6,29.84,SE,135,0.0,7.2,85,0.00,,,0.00,WUHU21623XXSP,2013-07-01 04:21:00,
2013-07-01 00:26:00,75.4,70.6,29.84,SSE,157,3.4,3.4,85,0.00,,,0.00,WUHU21623XXSP,2013-07-01 04:26:00,
2013-07-01 00:31:00,75.4,70.6,29.84,SE,135,0.0,6.7,85,0.00,,,0.00,WUHU21623XXSP,2013-07-01 04:31:00,
2013-07-01 00:36:00,75.4,70.6,29.84,SSW,202,0.0,6.7,85,0.00,,,0.00,WUHU21623XXSP,2013-07-01 04:36:00,
2013-07-01 00:41:00,75.3,70.5,29.84,SE,135,0.0,4.0,85,0.00,,,0.00,WUHU21623XXSP,2013-07-01 04:41:00,
2013-07-01 00:46:00,75.3,70.5,29.85,SE,135,0.0,4.0,85,0.00,,,0.00,WUHU21623XXSP,2013-07-01 04:46:00,
2013-07-01 00:51:00,75.3,70.5,29.85,SE,135,0.0,0.0,85,0.00,,,0.00,WUHU21623XXSP,2013-07-01 04:51:00,
2013-07-01 00:56:00,75.1,70.3,29.85,ESE,112,0.0,0.0,85,0.00,,,0.00,WUHU21623XXSP,2013-07-01 04:56:00,
2013-07-01 01:01:00,75.1,70.3,29.85,East,90,0.0,0.7,85,0.00,,,0.00,WUHU21623XXSP,2013-07-01 05:01:00,
2013-07-01 01:06:00,75.1,70.3,29.86,SE,135,0.0,0.7,85,0.00,,,0.00,WUHU21623XXSP,2013-07-01 05:06:00,
2013-07-01 01:11:00,74.9,70.1,29.86,SE,135,0.0,0.0,85,0.00,,,0.00,WUHU21623XXSP,2013-07-01 05:11:00,
2013-07-01 01:16:00,74.9,70.1,29.86,SE,135,0.0,0.0,85,0.00,,,0.00,WUHU21623XXSP,2013-07-01 05:16:00,
2013-07-01 01:21:00,74.7,69.9,29.86,SSE,157,0.0,0.0,85,0.00,,,0.00,WUHU21623XXSP,2013-07-01 05:21:00,
2013-07-01 01:26:00,74.7,69.9,29.85,SSE,157,0.0,0.0,85,0.00,,,0.00,WUHU21623XXSP,2013-07-01 05:26:00,
2013-07-01 01:31:00,74.7,69.9,29.86,SE,135,0.0,0.0,85,0.00,,,0.00,WUHU21623XXSP,2013-07-01 05:31:00,
2013-07-01 01:36:00,74.7,69.9,29.86,SE,135,0.0,0.0,85,0.00,,,0.00,WUHU21623XXSP,2013-07-01 05:36:00,
2013-07-01 01:41:00,74.7,69.9,29.86,SE,135,0.0,0.0,85,0.00,,,0.00,WUHU21623XXSP,2013-07-01 05:41:00,
2013-07-01 01:46:00,74.7,69.9,29.86,SE,135,0.0,0.0,85,0.00,,,0.00,WUHU21623XXSP,2013-07-01 05:46:00,
2013-07-01 01:51:00,74.7,69.9,29.86,SE,135,0.0,0.0,85,0.00,,,0.00,WUHU21623XXSP,2013-07-01 05:51:00,
2013-07-01 01:56:00,74.5,69.7,29.85,SE,135,0.0,0.0,85,0.00,,,0.00,WUHU21623XXSP,2013-07-01 05:56:00,
2013-07-01 02:01:00,74.5,69.7,29.86,SE,135,0.0,0.0,85,0.00,,,0.00,WUHU21623XXSP,2013-07-01 06:01:00,
2013-07-01 02:06:00,74.5,69.4,29.85,SE,135,0.0,0.0,84,0.00,,,0.00,WUHU21623XXSP,2013-07-01 06:06:00,
2013-07-01 02:11:00,74.5,69.4,29.85,SE,135,0.0,0.0,84,0.00,,,0.00,WUHU21623XXSP,2013-07-01 06:11:00,
2013-07-01 02:16:00,74.5,69.7,29.85,SE,135,0.0,0.0,85,0.00,,,0.00,WUHU21623XXSP,2013-07-01 06:16:00,
2013-07-01 02:21:00,74.5,69.7,29.85,SE,135,0.0,0.0,85,0.00,,,0.00,WUHU21623XXSP,2013-07-01 06:21:00,
2013-07-01 02:26:00,74.5,69.7,29.85,SE,135,0.0,0.0,85,0.00,,,0.00,WUHU21623XXSP,2013-07-01 06:26:00,
2013-07-01 02:31:00,74.4,69.6,29.84,SE,135,0.0,0.0,85,0.00,,,0.00,WUHU21623XXSP,2013-07-01 06:31:00,
2013-07-01 02:36:00,74.2,69.4,29.84,SE,135,0.0,0.0,85,0.00,,,0.00,WUHU21623XXSP,2013-07-01 06:36:00,
2013-07-01 02:41:00,74.2,69.4,29.84,SE,135,0.0,0.0,85,0.00,,,0.00,WUHU21623XXSP,2013-07-01 06:41:00,
2013-07-01 02:46:00,74.2,69.4,29.84,SE,135,0.0,0.0,85,0.00,,,0.00,WUHU21623XXSP,2013-07-01 06:46:00,
2013-07-01 02:51:00,74.0,69.2,29.84,SE,135,0.0,0.0,85,0.00,,,0.00,WUHU21623XXSP,2013-07-01 06:51:00,
2013-07-01 02:56:00,74.0,69.2,29.84,SE,135,0.0,0.0,85,0.00,,,0.00,WUHU21623XXSP,2013-07-01 06:56:00,
2013-07-01 03:01:00,73.8,69.0,29.84,SE,135,0.0,0.0,85,0.00,,,0.00,WUHU21623XXSP,2013-07-01 07:01:00,
2013-07-01 03:06:00,73.8,69.0,29.84,SE,135,0.0,0.0,85,0.00,,,0.00,WUHU21623XXSP,2013-07-01 07:06:00,
2013-07-01 03:11:00,73.8,69.0,29.84,SE,135,0.0,0.0,85,0.00,,,0.00,WUHU21623XXSP,2013-07-01 07:11:00,
2013-07-01 03:16:00,73.8,69.0,29.84,SE,135,0.0,0.0,85,0.00,,,0.00,WUHU21623XXSP,2013-07-01 07:16:00,
2013-07-01 03:21:00,73.6,68.8,29.84,SE,135,0.0,0.0,85,0.00,,,0.00,WUHU21623XXSP,2013-07-01 07:21:00,
2013-07-01 03:26:00,73.6,68.8,29.84,SE,135,0.0,0.0,85,0.00,,,0.00,WUHU21623XXSP,2013-07-01 07:26:00,
2013-07-01 03:31:00,73.6,68.8,29.84,SE,135,0.0,0.0,85,0.00,,,0.00,WUHU21623XXSP,2013-07-01 07:31:00,
2013-07-01 03:36:00,73.5,68.7,29.84,SE,135,0.0,0.0,85,0.00,,,0.00,WUHU21623XXSP,2013-07-01 07:36:00,
2013-07-01 03:41:00,73.5,68.7,29.84,SE,135,0.0,0.0,85,0.00,,,0.00,WUHU21623XXSP,2013-07-01 07:41:00,
2013-07-01 03:46:00,73.5,68.7,29.84,SE,135,0.0,0.0,85,0.00,,,0.00,WUHU21623XXSP,2013-07-01 07:46:00,
2013-07-01 03:51:00,73.3,68.6,29.84,SE,135,0.0,0.0,85,0.00,,,0.00,WUHU21623XXSP,2013-07-01 07:51:00,
2013-07-01 03:56:00,73.3,68.6,29.84,SE,135,0.0,0.0,85,0.00,,,0.00,WUHU21623XXSP,2013-07-01 07:56:00,
2013-07-01 04:01:00,73.3,68.6,29.84,SE,135,0.0,0.0,85,0.00,,,0.00,WUHU21623XXSP,2013-07-01 08:01:00,
2013-07-01 04:06:00,73.3,68.6,29.84,SE,135,0.0,0.0,85,0.00,,,0.00,WUHU21623XXSP,2013-07-01 08:06:00,
2013-07-01 04:11:00,73.1,68.4,29.84,SE,135,0.0,0.0,85,0.00,,,0.00,WUHU21623XXSP,2013-07-01 08:11:00,
2013-07-01 04:16:00,73.1,68.4,29.85,SE,135,0.0,0.0,85,0.00,,,0.00,WUHU21623XXSP,2013-07-01 08:16:00,
2013-07-01 04:21:00,72.9,68.2,29.85,SE,135,0.0,0.0,85,0.00,,,0.00,WUHU21623XXSP,2013-07-01 08:21:00,
2013-07-01 04:26:00,72.9,68.2,29.85,SE,135,0.0,0.0,85,0.00,,,0.00,WUHU21623XXSP,2013-07-01 08:26:00,
2013-07-01 04:31:00,72.9,68.2,29.85,SE,135,0.0,0.0,85,0.00,,,0.00,WUHU21623XXSP,2013-07-01 08:31:00,
2013-07-01 04:36:00,72.7,68.0,29.85,SE,135,0.0,0.0,85,0.00,,,0.00,WUHU21623XXSP,2013-07-01 08:36:00,
2013-07-01 04:41:00,72.7,68.0,29.86,West,270,0.0,0.0,85,0.00,,,0.00,WUHU21623XXSP,2013-07-01 08:41:00,
2013-07-01 04:46:00,72.7,68.0,29.85,West,270,0.0,0.0,85,0.00,,,0.00,WUHU21623XXSP,2013-07-01 08:46:00,
2013-07-01 04:51:00,72.6,67.9,29.86,West,270,0.0,0.0,85,0.00,,,0.00,WUHU21623XXSP,2013-07-01 08:51:00,
2013-07-01 04:56:00,72.4,67.7,29.86,West,270,0.0,0.0,85,0.00,,,0.00,WUHU21623XXSP,2013-07-01 08:56:00,
2013-07-01 05:01:00,72.4,67.7,29.86,West,270,0.0,0.0,85,0.00,,,0.00,WUHU21623XXSP,2013-07-01 09:01:00,
2013-07-01 05:06:00,72.2,67.5,29.85,West,270,0.0,0.0,85,0.00,,,0.00,WUHU21623XXSP,2013-07-01 09:06:00,
2013-07-01 05:11:00,72.2,67.5,29.86,West,270,0.0,0.0,85,0.00,,,0.00,WUHU21623XXSP,2013-07-01 09:11:00,
2013-07-01 05:16:00,72.2,67.5,29.86,West,270,0.0,0.0,85,0.00,,,0.00,WUHU21623XXSP,2013-07-01 09:16:00,
2013-07-01 05:21:00,72.0,67.3,29.87,West,270,0.0,0.0,85,0.00,,,0.00,WUHU21623XXSP,2013-07-01 09:21:00,
2013-07-01 05:26:00,72.0,67.3,29.87,West,270,0.0,0.0,85,0.00,,,0.00,WUHU21623XXSP,2013-07-01 09:26:00,
2013-07-01 05:31:00,71.8,67.1,29.87,West,270,0.0,0.0,85,0.00,,,0.00,WUHU21623XXSP,2013-07-01 09:31:00,
2013-07-01 05:36:00,71.8,67.1,29.87,West,270,0.0,0.0,85,0.00,,,0.00,WUHU21623XXSP,2013-07-01 09:36:00,
2013-07-01 05:41:00,71.8,67.1,29.87,West,270,0.0,0.0,85,0.00,,,0.00,WUHU21623XXSP,2013-07-01 09:41:00,
2013-07-01 05:46:00,71.7,67.0,29.88,West,270,0.0,0.0,85,0.00,,,0.00,WUHU21623XXSP,2013-07-01 09:46:00,
2013-07-01 05:51:00,71.7,67.0,29.88,West,270,0.0,0.0,85,0.00,,,0.00,WUHU21623XXSP,2013-07-01 09:51:00,
2013-07-01 05:56:00,71.7,67.0,29.88,West,270,0.0,0.0,85,0.00,,,0.00,WUHU21623XXSP,2013-07-01 09:56:00,
2013-07-01 06:01:00,71.5,66.8,29.88,West,270,0.0,0.0,85,0.00,,,0.00,WUHU21623XXSP,2013-07-01 10:01:00,
2013-07-01 06:06:00,71.5,66.8,29.88,West,270,0.0,0.0,85,0.00,,,0.00,WUHU21623XXSP,2013-07-01 10:06:00,
2013-07-01 06:11:00,71.5,66.8,29.88,West,270,0.0,0.0,85,0.00,,,0.00,WUHU21623XXSP,2013-07-01 10:11:00,
2013-07-01 06:16:00,71.5,66.8,29.88,West,270,0.0,0.0,85,0.00,,,0.00,WUHU21623XXSP,2013-07-01 10:16:00,
2013-07-01 06:21:00,71.5,66.8,29.89,West,270,0.0,0.0,85,0.00,,,0.00,WUHU21623XXSP,2013-07-01 10:21:00,
2013-07-01 06:26:00,71.5,66.8,29.89,West,270,0.0,0.0,85,0.00,,,0.00,WUHU21623XXSP,2013-07-01 10:26:00,
2013-07-01 06:31:00,71.3,66.6,29.89,West,270,0.0,0.0,85,0.00,,,0.00,WUHU21623XXSP,2013-07-01 10:31:00,
2013-07-01 06:36:00,71.3,66.6,29.90,West,270,0.0,0.0,85,0.00,,,0.00,WUHU21623XXSP,2013-07-01 10:36:00,
2013-07-01 06:41:00,71.3,66.6,29.89,West,270,0.0,0.0,85,0.00,,,0.00,WUHU21623XXSP,2013-07-01 10:41:00,
2013-07-01 06:46:00,71.3,66.6,29.90,West,270,0.0,0.0,85,0.00,,,0.00,WUHU21623XXSP,2013-07-01 10:46:00,
2013-07-01 06:51:00,71.3,66.6,29.90,West,270,0.0,0.0,85,0.00,,,0.00,WUHU21623XXSP,2013-07-01 10:51:00,
2013-07-01 06:56:00,71.5,66.8,29.89,West,270,0.0,0.0,85,0.00,,,0.00,WUHU21623XXSP,2013-07-01 10:56:00,
2013-07-01 07:01:00,71.3,66.6,29.90,West,270,0.0,0.0,85,0.00,,,0.00,WUHU21623XXSP,2013-07-01 11:01:00,
2013-07-01 07:06:00,71.5,66.8,29.90,West,270,0.0,0.0,85,0.00,,,0.00,WUHU21623XXSP,2013-07-01 11:06:00,
2013-07-01 07:11:00,71.5,66.8,29.91,West,270,0.0,0.0,85,0.00,,,0.00,WUHU21623XXSP,2013-07-01 11:11:00,
2013-07-01 07:16:00,71.5,66.8,29.91,West,270,0.0,0.0,85,0.00,,,0.00,WUHU21623XXSP,2013-07-01 11:16:00,
2013-07-01 07:21:00,71.5,66.8,29.90,West,270,0.0,0.0,85,0.00,,,0.00,WUHU21623XXSP,2013-07-01 11:21:00,
2013-07-01 07:26:00,71.5,66.8,29.90,West,270,0.0,0.0,85,0.00,,,0.00,WUHU21623XXSP,2013-07-01 11:26:00,
2013-07-01 07:31:00,71.5,66.8,29.90,SW,225,0.0,0.0,85,0.00,,,0.00,WUHU21623XXSP,2013-07-01 11:31:00,
2013-07-01 07:36:00,71.5,67.1,29.90,South,180,0.0,0.0,86,0.00,,,0.00,WUHU21623XXSP,2013-07-01 11:36:00,
2013-07-01 07:41:00,71.7,67.3,29.91,South,180,0.0,0.0,86,0.00,,,0.00,WUHU21623XXSP,2013-07-01 11:41:00,
2013-07-01 07:46:00,71.8,67.4,29.91,South,180,0.0,0.0,86,0.00,,,0.00,WUHU21623XXSP,2013-07-01 11:46:00,
2013-07-01 07:51:00,71.8,67.4,29.91,South,180,0.0,0.0,86,0.00,,,0.00,WUHU21623XXSP,2013-07-01 11:51:00,
2013-07-01 07:56:00,71.8,67.4,29.91,South,180,0.0,0.0,86,0.00,,,0.00,WUHU21623XXSP,2013-07-01 11:56:00,
2013-07-01 08:01:00,71.8,67.4,29.91,South,180,0.0,0.0,86,0.00,,,0.00,WUHU21623XXSP,2013-07-01 12:01:00,
2013-07-01 08:06:00,72.0,67.6,29.91,SE,135,0.0,0.0,86,0.00,,,0.00,WUHU21623XXSP,2013-07-01 12:06:00,
2013-07-01 08:11:00,72.0,67.6,29.91,SSE,157,0.0,0.0,86,0.00,,,0.00,WUHU21623XXSP,2013-07-01 12:11:00,
2013-07-01 08:16:00,72.0,67.6,29.91,SSE,157,0.0,0.0,86,0.00,,,0.00,WUHU21623XXSP,2013-07-01 12:16:00,
2013-07-01 08:21:00,72.2,67.8,29.91,SSE,157,0.0,0.0,86,0.00,,,0.00,WUHU21623XXSP,2013-07-01 12:21:00,
2013-07-01 08:26:00,72.4,68.0,29.91,SSE,157,0.0,2.9,86,0.00,,,0.00,WUHU21623XXSP,2013-07-01 12:26:00,
2013-07-01 08:31:00,72.7,68.3,29.91,SE,135,0.0,2.9,86,0.00,,,0.00,WUHU21623XXSP,2013-07-01 12:31:00,
2013-07-01 08:36:00,72.9,68.5,29.92,SE,135,0.0,0.0,86,0.00,,,0.00,WUHU21623XXSP,2013-07-01 12:36:00,
2013-07-01 08:41:00,73.1,68.7,29.91,SE,135,0.0,1.3,86,0.00,,,0.00,WUHU21623XXSP,2013-07-01 12:41:00,
2013-07-01 08:46:00,73.3,68.9,29.91,SE,135,0.0,1.3,86,0.00,,,0.00,WUHU21623XXSP,2013-07-01 12:46:00,
2013-07-01 08:51:00,73.6,69.2,29.92,SE,135,0.0,0.0,86,0.00,,,0.00,WUHU21623XXSP,2013-07-01 12:51:00,
2013-07-01 08:56:00,73.6,69.2,29.91,SSE,157,0.0,5.8,86,0.00,,,0.00,WUHU21623XXSP,2013-07-01 12:56:00,
2013-07-01 09:01:00,73.8,69.4,29.91,SSE,157,0.0,5.8,86,0.00,,,0.00,WUHU21623XXSP,2013-07-01 13:01:00,
2013-07-01 09:06:00,74.0,69.2,29.91,SSE,157,0.0,4.3,85,0.00,,,0.00,WUHU21623XXSP,2013-07-01 13:06:00,
2013-07-01 09:11:00,74.2,69.4,29.91,SE,135,0.0,4.3,85,0.00,,,0.00,WUHU21623XXSP,2013-07-01 13:11:00,
2013-07-01 09:16:00,74.2,69.4,29.91,SSE,157,3.8,3.8,85,0.00,,,0.00,WUHU21623XXSP,2013-07-01 13:16:00,
2013-07-01 09:21:00,74.4,69.6,29.91,SSE,157,0.0,3.8,85,0.00,,,0.00,WUHU21623XXSP,2013-07-01 13:21:00,
2013-07-01 09:26:00,74.4,69.6,29.91,ESE,112,0.0,3.6,85,0.00,,,0.00,WUHU21623XXSP,2013-07-01 13:26:00,
2013-07-01 09:31:00,74.4,69.6,29.91,SSE,157,1.8,3.6,85,0.00,,,0.00,WUHU21623XXSP,2013-07-01 13:31:00,
2013-07-01 09:36:00,74.5,69.7,29.91,SE,135,0.0,2.7,85,0.00,,,0.00,WUHU21623XXSP,2013-07-01 13:36:00,
2013-07-01 09:41:00,74.5,69.7,29.92,SSE,157,0.0,0.0,85,0.00,,,0.00,WUHU21623XXSP,2013-07-01 13:41:00,
2013-07-01 09:46:00,74.5,69.7,29.91,SSE,157,2.9,2.9,85,0.00,,,0.00,WUHU21623XXSP,2013-07-01 13:46:00,
2013-07-01 09:51:00,74.5,69.7,29.91,SSE,157,0.0,2.9,85,0.00,,,0.00,WUHU21623XXSP,2013-07-01 13:51:00,
2013-07-01 09:56:00,74.5,69.7,29.92,SSE,157,0.0,4.0,85,0.00,,,0.00,WUHU21623XXSP,2013-07-01 13:56:00,
2013-07-01 10:01:00,74.5,69.4,29.91,SSE,157,0.0,4.9,84,0.00,,,0.00,WUHU21623XXSP,2013-07-01 14:01:00,
2013-07-01 10:06:00,74.5,69.4,29.91,South,180,0.0,4.9,84,0.00,,,0.00,WUHU21623XXSP,2013-07-01 14:06:00,
2013-07-01 10:11:00,74.4,69.3,29.91,SE,135,0.4,1.6,84,0.00,,,0.00,WUHU21623XXSP,2013-07-01 14:11:00,
2013-07-01 10:16:00,74.2,69.1,29.92,SE,135,0.0,6.3,84,0.00,,,0.00,WUHU21623XXSP,2013-07-01 14:16:00,
2013-07-01 10:21:00,74.2,69.1,29.92,SSE,157,0.0,6.3,84,0.00,,,0.00,WUHU21623XXSP,2013-07-01 14:21:00,
2013-07-01 10:26:00,74.2,69.1,29.92,ESE,112,0.0,3.4,84,0.02,,,0.02,WUHU21623XXSP,2013-07-01 14:26:00,
2013-07-01 10:31:00,74.2,69.1,29.92,SSE,157,0.0,0.0,84,0.02,,,0.02,WUHU21623XXSP,2013-07-01 14:31:00,
2013-07-01 10:36:00,74.2,69.4,29.92,SE,135,0.0,0.0,85,0.02,,,0.02,WUHU21623XXSP,2013-07-01 14:36:00,
2013-07-01 10:41:00,74.2,69.4,29.92,SE,135,0.0,0.0,85,0.02,,,0.02,WUHU21623XXSP,2013-07-01 14:41:00,
2013-07-01 10:46:00,74.2,69.4,29.92,South,180,0.0,0.0,85,0.02,,,0.02,WUHU21623XXSP,2013-07-01 14:46:00,
2013-07-01 10:51:00,74.4,69.6,29.92,SSE,157,2.5,4.7,85,0.02,,,0.02,WUHU21623XXSP,2013-07-01 14:51:00,
2013-07-01 10:56:00,74.4,69.6,29.92,SSE,157,1.8,7.2,85,0.02,,,0.02,WUHU21623XXSP,2013-07-01 14:56:00,
2013-07-01 11:01:00,74.4,69.6,29.93,SSE,157,4.3,7.2,85,0.02,,,0.02,WUHU21623XXSP,2013-07-01 15:01:00,
2013-07-01 11:06:00,74.4,69.6,29.93,NNW,337,0.0,6.7,85,0.02,,,0.02,WUHU21623XXSP,2013-07-01 15:06:00,
2013-07-01 11:11:00,74.4,69.6,29.93,SSE,157,0.0,6.7,85,0.02,,,0.02,WUHU21623XXSP,2013-07-01 15:11:00,
2013-07-01 11:16:00,74.4,69.6,29.93,South,180,0.0,0.0,85,0.02,,,0.02,WUHU21623XXSP,2013-07-01 15:16:00,
2013-07-01 11:21:00,74.5,69.7,29.93,South,180,0.0,0.0,85,0.02,,,0.02,WUHU21623XXSP,2013-07-01 15:21:00,
2013-07-01 11:26:00,74.5,69.7,29.93,SE,138,2.6,4.3,85,0.00,,,0.02,WUHU21623XXSP,2013-07-01 15:26:00,
2013-07-01 11:31:00,74.5,69.7,29.93,South,170,3.6,7.4,85,0.00,,,0.02,WUHU21623XXSP,2013-07-01 15:31:00,
2013-07-01 11:36:00,74.5,69.7,29.93,SSE,167,3.9,7.4,85,0.00,,,0.02,WUHU21623XXSP,2013-07-01 15:36:00,
2013-07-01 11:41:00,74.5,69.7,29.93,SSE,157,0.0,7.2,85,0.00,,,0.02,WUHU21623XXSP,2013-07-01 15:41:00,
2013-07-01 11:46:00,74.5,69.7,29.93,SE,136,1.6,7.2,85,0.00,,,0.02,WUHU21623XXSP,2013-07-01 15:46:00,
2013-07-01 11:51:00,74.7,69.9,29.93,SSE,157,0.0,2.5,85,0.00,,,0.02,WUHU21623XXSP,2013-07-01 15:51:00,
2013-07-01 11:56:00,74.7,69.9,29.93,SE,135,0.0,0.0,85,0.00,,,0.02,WUHU21623XXSP,2013-07-01 15:56:00,
2013-07-01 12:02:00,74.7,69.9,29.93,SSE,157,0.0,2.0,85,0.00,,,0.02,WUHU21623XXSP,2013-07-01 16:02:00,
2013-07-01 12:07:00,74.7,69.9,29.93,SE,135,0.0,2.0,85,0.00,,,0.02,WUHU21623XXSP,2013-07-01 16:07:00,
2013-07-01 12:12:00,74.9,70.1,29.93,SSE,157,0.0,0.0,85,0.00,,,0.02,WUHU21623XXSP,2013-07-01 16:12:00,
2013-07-01 12:17:00,75.1,70.3,29.93,SSE,157,0.0,0.0,85,0.00,,,0.02,WUHU21623XXSP,2013-07-01 16:17:00,
2013-07-01 12:22:00,75.1,70.3,29.93,SSE,164,3.2,4.3,85,0.00,,,0.02,WUHU21623XXSP,2013-07-01 16:22:00,
2013-07-01 12:27:00,75.1,70.3,29.93,SE,135,0.0,4.3,85,0.00,,,0.02,WUHU21623XXSP,2013-07-01 16:27:00,
2013-07-01 12:32:00,75.1,70.3,29.93,SSE,157,0.0,0.0,85,0.00,,,0.02,WUHU21623XXSP,2013-07-01 16:32:00,
2013-07-01 12:37:00,75.3,70.5,29.92,SSE,157,0.0,0.0,85,0.00,,,0.02,WUHU21623XXSP,2013-07-01 16:37:00,
2013-07-01 12:42:00,75.4,70.6,29.92,SE,135,0.7,0.7,85,0.00,,,0.02,WUHU21623XXSP,2013-07-01 16:42:00,
2013-07-01 12:47:00,75.4,70.6,29.92,SSE,157,1.3,1.3,85,0.00,,,0.02,WUHU21623XXSP,2013-07-01 16:47:00,
2013-07-01 12:53:00,75.4,70.6,29.92,SSE,157,3.8,6.5,85,0.00,,,0.02,WUHU21623XXSP,2013-07-01 16:53:00,
2013-07-01 12:58:00,75.4,70.6,29.92,SSE,157,2.0,6.5,85,0.00,,,0.02,WUHU21623XXSP,2013-07-01 16:58:00,
2013-07-01 13:03:00,75.3,70.2,29.92,SE,135,0.0,5.4,84,0.00,,,0.02,WUHU21623XXSP,2013-07-01 17:03:00,
2013-07-01 13:08:00,75.3,70.5,29.92,SSW,198,3.2,7.4,85,0.00,,,0.02,WUHU21623XXSP,2013-07-01 17:08:00,
2013-07-01 13:13:00,75.1,70.3,29.93,SSE,156,4.4,7.4,85,0.00,,,0.02,WUHU21623XXSP,2013-07-01 17:13:00,
2013-07-01 13:18:00,75.1,70.3,29.92,SE,135,2.7,6.9,85,0.00,,,0.02,WUHU21623XXSP,2013-07-01 17:18:00,
2013-07-01 13:23:00,75.1,70.3,29.91,SSE,150,5.3,7.2,85,0.00,,,0.02,WUHU21623XXSP,2013-07-01 17:23:00,
2013-07-01 13:28:00,75.1,70.3,29.91,SSE,157,1.9,7.2,85,0.00,,,0.02,WUHU21623XXSP,2013-07-01 17:28:00,
2013-07-01 13:33:00,75.1,70.3,29.91,SSE,157,0.0,7.6,85,0.00,,,0.02,WUHU21623XXSP,2013-07-01 17:33:00,
2013-07-01 13:38:00,75.1,70.3,29.91,SSW,202,0.0,7.6,85,0.00,,,0.02,WUHU21623XXSP,2013-07-01 17:38:00,
2013-07-01 13:43:00,75.3,70.5,29.91,SSE,157,3.1,6.3,85,0.00,,,0.02,WUHU21623XXSP,2013-07-01 17:43:00,
2013-07-01 13:48:00,75.3,70.5,29.91,East,93,3.9,6.7,85,0.00,,,0.02,WUHU21623XXSP,2013-07-01 17:48:00,
2013-07-01 13:53:00,75.4,70.6,29.92,SSE,157,0.0,6.7,85,0.00,,,0.02,WUHU21623XXSP,2013-07-01 17:53:00,
2013-07-01 13:58:00,75.4,70.6,29.91,ESE,112,0.0,2.2,85,0.00,,,0.02,WUHU21623XXSP,2013-07-01 17:58:00,
2013-07-01 14:03:00,75.4,70.6,29.92,South,180,2.0,5.8,85,0.00,,,0.02,WUHU21623XXSP,2013-07-01 18:03:00,
2013-07-01 14:08:00,75.4,70.6,29.92,SSE,157,1.6,5.8,85,0.00,,,0.02,WUHU21623XXSP,2013-07-01 18:08:00,
2013-07-01 14:13:00,75.6,70.8,29.92,South,171,6.0,7.4,85,0.00,,,0.02,WUHU21623XXSP,2013-07-01 18:13:00,
2013-07-01 14:18:00,76.0,71.2,29.92,SSE,157,2.0,7.4,85,0.00,,,0.02,WUHU21623XXSP,2013-07-01 18:18:00,
2013-07-01 14:23:00,76.0,71.2,29.92,South,180,0.0,5.6,85,0.00,,,0.02,WUHU21623XXSP,2013-07-01 18:23:00,
2013-07-01 14:28:00,76.3,71.5,29.91,SSE,150,2.0,6.7,85,0.00,,,0.02,WUHU21623XXSP,2013-07-01 18:28:00,
2013-07-01 14:33:00,76.5,71.7,29.92,SE,145,5.3,11.2,85,0.00,,,0.02,WUHU21623XXSP,2013-07-01 18:33:00,
2013-07-01 14:38:00,76.5,71.4,29.91,SE,135,6.0,11.2,84,0.00,,,0.02,WUHU21623XXSP,2013-07-01 18:38:00,
2013-07-01 14:43:00,76.5,71.4,29.92,SSE,157,2.6,7.6,84,0.00,,,0.02,WUHU21623XXSP,2013-07-01 18:43:00,
2013-07-01 14:48:00,77.1,71.9,29.92,SSW,202,4.7,8.3,84,0.00,,,0.02,WUHU21623XXSP,2013-07-01 18:48:00,
2013-07-01 14:53:00,77.6,72.4,29.92,SSE,162,7.4,11.2,84,0.00,,,0.02,WUHU21623XXSP,2013-07-01 18:53:00,
2013-07-01 14:58:00,78.3,72.8,29.91,South,180,5.6,11.2,83,0.00,,,0.02,WUHU21623XXSP,2013-07-01 18:58:00,
2013-07-01 15:03:00,78.3,72.8,29.92,SSE,157,6.9,8.9,83,0.00,,,0.02,WUHU21623XXSP,2013-07-01 19:03:00,
2013-07-01 15:08:00,78.3,72.4,29.92,SSE,156,6.4,10.1,82,0.00,,,0.02,WUHU21623XXSP,2013-07-01 19:08:00,
2013-07-01 15:13:00,78.5,72.6,29.91,ESE,123,5.7,10.1,82,0.00,,,0.02,WUHU21623XXSP,2013-07-01 19:13:00,
2013-07-01 15:18:00,78.5,72.6,29.92,SE,141,4.6,9.4,82,0.00,,,0.02,WUHU21623XXSP,2013-07-01 19:18:00,
2013-07-01 15:23:00,78.7,72.8,29.92,East,96,2.3,8.5,82,0.00,,,0.02,WUHU21623XXSP,2013-07-01 19:23:00,
2013-07-01 15:28:00,78.7,72.8,29.91,East,92,1.0,6.7,82,0.00,,,0.02,WUHU21623XXSP,2013-07-01 19:28:00,
2013-07-01 15:33:00,78.7,72.8,29.92,SE,126,6.1,8.3,82,0.00,,,0.02,WUHU21623XXSP,2013-07-01 19:33:00,
2013-07-01 15:38:00,78.7,72.5,29.92,North,0,0.0,8.9,81,0.00,,,0.02,WUHU21623XXSP,2013-07-01 19:38:00,
2013-07-01 15:43:00,78.7,72.5,29.92,South,180,3.6,8.9,81,0.00,,,0.02,WUHU21623XXSP,2013-07-01 19:43:00,
2013-07-01 15:48:00,78.7,72.5,29.92,SE,136,4.3,7.8,81,0.00,,,0.02,WUHU21623XXSP,2013-07-01 19:48:00,
2013-07-01 15:53:00,78.7,72.5,29.92,SSE,160,5.3,9.6,81,0.00,,,0.02,WUHU21623XXSP,2013-07-01 19:53:00,
2013-07-01 15:58:00,78.5,72.3,29.92,SE,143,4.4,9.6,81,0.00,,,0.02,WUHU21623XXSP,2013-07-01 19:58:00,
2013-07-01 16:03:00,78.7,72.5,29.92,SE,135,0.0,7.6,81,0.00,,,0.02,WUHU21623XXSP,2013-07-01 20:03:00,
2013-07-01 16:08:00,78.5,72.3,29.91,ESE,115,4.0,7.6,81,0.00,,,0.02,WUHU21623XXSP,2013-07-01 20:08:00,
2013-07-01 16:13:00,78.5,71.9,29.91,SE,125,4.2,8.3,80,0.00,,,0.02,WUHU21623XXSP,2013-07-01 20:13:00,
2013-07-01 16:18:00,78.3,72.1,29.92,SE,142,3.8,8.3,81,0.00,,,0.02,WUHU21623XXSP,2013-07-01 20:18:00,
2013-07-01 16:23:00,78.3,72.1,29.91,SSE,156,5.1,8.3,81,0.00,,,0.02,WUHU21623XXSP,2013-07-01 20:23:00,
2013-07-01 16:28:00,78.3,72.1,29.91,SSE,160,3.1,8.3,81,0.00,,,0.02,WUHU21623XXSP,2013-07-01 20:28:00,
2013-07-01 16:33:00,78.7,72.5,29.92,South,172,4.7,9.4,81,0.00,,,0.02,WUHU21623XXSP,2013-07-01 20:33:00,
2013-07-01 16:38:00,78.7,72.1,29.92,SSE,164,3.5,9.4,80,0.00,,,0.02,WUHU21623XXSP,2013-07-01 20:38:00,
2013-07-01 16:43:00,78.7,72.1,29.92,East,93,2.8,6.5,80,0.00,,,0.02,WUHU21623XXSP,2013-07-01 20:43:00,
2013-07-01 16:48:00,78.9,72.3,29.92,SE,141,4.4,8.3,80,0.00,,,0.02,WUHU21623XXSP,2013-07-01 20:48:00,
2013-07-01 16:53:00,79.0,72.4,29.92,SSE,151,4.8,8.7,80,0.00,,,0.02,WUHU21623XXSP,2013-07-01 20:53:00,
2013-07-01 16:58:00,79.2,72.6,29.92,SE,135,6.5,11.2,80,0.00,,,0.02,WUHU21623XXSP,2013-07-01 20:58:00,
2013-07-01 17:03:00,79.6,72.6,29.92,SSE,157,3.4,11.2,79,0.00,,,0.02,WUHU21623XXSP,2013-07-01 21:03:00,
2013-07-01 17:08:00,81.0,74.0,29.92,SSE,157,8.3,9.8,79,0.00,,,0.02,WUHU21623XXSP,2013-07-01 21:08:00,
2013-07-01 17:13:00,82.3,74.5,29.92,SE,135,5.6,9.8,77,0.00,,,0.02,WUHU21623XXSP,2013-07-01 21:13:00,
2013-07-01 17:18:00,83.0,74.8,29.92,SSE,157,8.9,11.4,76,0.00,,,0.02,WUHU21623XXSP,2013-07-01 21:18:00,
2013-07-01 17:23:00,83.5,74.5,29.92,South,180,6.0,11.4,74,0.00,,,0.02,WUHU21623XXSP,2013-07-01 21:23:00,
2013-07-01 17:28:00,83.2,74.3,29.92,South,172,2.7,6.9,74,0.00,,,0.02,WUHU21623XXSP,2013-07-01 21:28:00,
2013-07-01 17:33:00,83.0,74.1,29.93,SE,135,0.9,6.0,74,0.00,,,0.02,WUHU21623XXSP,2013-07-01 21:33:00,
2013-07-01 17:38:00,82.8,73.9,29.93,SE,135,4.6,7.4,74,0.00,,,0.02,WUHU21623XXSP,2013-07-01 21:38:00,
2013-07-01 17:43:00,82.8,73.9,29.93,SE,135,6.5,9.6,74,0.00,,,0.02,WUHU21623XXSP,2013-07-01 21:43:00,
2013-07-01 17:48:00,82.5,73.6,29.93,SSE,150,5.7,9.8,74,0.00,,,0.02,WUHU21623XXSP,2013-07-01 21:48:00,
2013-07-01 17:53:00,81.9,73.0,29.93,SE,144,6.3,9.8,74,0.00,,,0.02,WUHU21623XXSP,2013-07-01 21:53:00,
2013-07-01 17:58:00,81.4,72.9,29.93,SE,134,5.6,9.6,75,0.00,,,0.02,WUHU21623XXSP,2013-07-01 21:58:00,
2013-07-01 18:03:00,80.7,72.2,29.93,NE,45,0.0,9.4,75,0.00,,,0.02,WUHU21623XXSP,2013-07-01 22:03:00,
2013-07-01 18:08:00,80.1,72.0,29.93,SSE,148,4.1,8.7,76,0.00,,,0.02,WUHU21623XXSP,2013-07-01 22:08:00,
2013-07-01 18:13:00,79.9,71.8,29.93,ESE,112,5.4,8.5,76,0.00,,,0.02,WUHU21623XXSP,2013-07-01 22:13:00,
2013-07-01 18:18:00,79.6,71.9,29.93,SE,140,4.3,8.9,77,0.00,,,0.02,WUHU21623XXSP,2013-07-01 22:18:00,
2013-07-01 18:23:00,79.2,71.5,29.93,South,174,4.1,9.6,77,0.00,,,0.02,WUHU21623XXSP,2013-07-01 22:23:00,
2013-07-01 18:28:00,78.9,71.2,29.94,South,180,2.5,9.6,77,0.00,,,0.02,WUHU21623XXSP,2013-07-01 22:28:00,
2013-07-01 18:33:00,78.7,71.4,29.93,SSE,157,2.2,9.6,78,0.00,,,0.02,WUHU21623XXSP,2013-07-01 22:33:00,
2013-07-01 18:38:00,78.3,71.0,29.93,SE,142,6.1,9.8,78,0.00,,,0.02,WUHU21623XXSP,2013-07-01 22:38:00,
2013-07-01 18:43:00,78.3,71.0,29.94,SSE,162,4.2,9.8,78,0.00,,,0.02,WUHU21623XXSP,2013-07-01 22:43:00,
2013-07-01 18:48:00,78.1,71.2,29.93,South,174,5.5,11.4,79,0.00,,,0.02,WUHU21623XXSP,2013-07-01 22:48:00,
2013-07-01 18:53:00,77.8,70.9,29.94,SSE,166,2.7,11.4,79,0.00,,,0.02,WUHU21623XXSP,2013-07-01 22:53:00,
2013-07-01 18:58:00,77.6,70.7,29.94,SE,135,8.7,8.9,79,0.00,,,0.02,WUHU21623XXSP,2013-07-01 22:58:00,
2013-07-01 19:03:00,77.4,70.5,29.94,SSE,157,5.4,8.9,79,0.00,,,0.02,WUHU21623XXSP,2013-07-01 23:03:00,
2013-07-01 19:08:00,77.4,70.5,29.94,SSE,165,3.9,10.7,79,0.00,,,0.02,WUHU21623XXSP,2013-07-01 23:08:00,
2013-07-01 19:13:00,77.2,70.7,29.94,SE,135,3.6,10.7,80,0.00,,,0.02,WUHU21623XXSP,2013-07-01 23:13:00,
2013-07-01 19:18:00,77.1,70.6,29.94,South,173,4.4,8.3,80,0.00,,,0.02,WUHU21623XXSP,2013-07-01 23:18:00,
2013-07-01 19:23:00,77.1,70.6,29.94,SE,139,3.4,8.3,80,0.00,,,0.02,WUHU21623XXSP,2013-07-01 23:23:00,
2013-07-01 19:28:00,76.9,70.4,29.94,SSE,157,0.0,5.8,80,0.00,,,0.02,WUHU21623XXSP,2013-07-01 23:28:00,
2013-07-01 19:33:00,76.9,70.4,29.94,SSE,168,5.8,8.9,80,0.00,,,0.02,WUHU21623XXSP,2013-07-01 23:33:00,
2013-07-01 19:38:00,76.5,70.3,29.95,South,180,4.5,8.9,81,0.00,,,0.02,WUHU21623XXSP,2013-07-01 23:38:00,
2013-07-01 19:43:00,76.5,70.3,29.95,SSE,163,5.2,9.6,81,0.00,,,0.02,WUHU21623XXSP,2013-07-01 23:43:00,
2013-07-01 19:48:00,76.5,70.3,29.95,SSE,156,5.7,12.1,81,0.00,,,0.02,WUHU21623XXSP,2013-07-01 23:48:00,
2013-07-01 19:53:00,76.5,70.0,29.95,SSE,157,2.0,12.1,80,0.00,,,0.02,WUHU21623XXSP,2013-07-01 23:53:00,
2013-07-01 19:58:00,76.3,69.8,29.95,SSE,157,6.9,9.8,80,0.00,,,0.02,WUHU21623XXSP,2013-07-01 23:58:00,
2013-07-01 20:03:00,76.2,69.7,29.95,SSE,157,5.1,9.8,80,0.00,,,0.02,WUHU21623XXSP,2013-07-02 00:03:00,
2013-07-01 20:08:00,76.0,69.5,29.96,SSE,153,2.8,7.4,80,0.00,,,0.02,WUHU21623XXSP,2013-07-02 00:08:00,
2013-07-01 20:13:00,76.0,69.5,29.96,South,180,5.8,7.8,80,0.00,,,0.02,WUHU21623XXSP,2013-07-02 00:13:00,
2013-07-01 20:18:00,75.8,69.6,29.96,SE,135,0.0,7.8,81,0.00,,,0.02,WUHU21623XXSP,2013-07-02 00:18:00,
2013-07-01 20:23:00,75.6,69.4,29.96,SSE,157,0.0,0.7,81,0.00,,,0.02,WUHU21623XXSP,2013-07-02 00:23:00,
2013-07-01 20:28:00,75.6,69.1,29.96,SE,136,3.6,6.0,80,0.00,,,0.02,WUHU21623XXSP,2013-07-02 00:28:00,
2013-07-01 20:33:00,75.4,68.9,29.96,SSE,157,0.0,6.0,80,0.00,,,0.02,WUHU21623XXSP,2013-07-02 00:33:00,
2013-07-01 20:38:00,75.4,69.2,29.95,SE,135,8.7,9.6,81,0.00,,,0.02,WUHU21623XXSP,2013-07-02 00:38:00,
2013-07-01 20:43:00,75.4,69.2,29.95,SSE,165,3.2,9.6,81,0.00,,,0.02,WUHU21623XXSP,2013-07-02 00:43:00,
2013-07-01 20:48:00,75.3,69.2,29.95,SE,129,4.9,9.8,81,0.00,,,0.02,WUHU21623XXSP,2013-07-02 00:48:00,
2013-07-01 20:53:00,75.3,69.2,29.95,SE,144,5.2,9.8,81,0.00,,,0.02,WUHU21623XXSP,2013-07-02 00:53:00,
2013-07-01 20:58:00,75.1,69.3,29.95,SE,126,7.4,8.1,82,0.00,,,0.02,WUHU21623XXSP,2013-07-02 00:58:00,
2013-07-01 21:03:00,75.1,69.3,29.95,SE,146,4.3,7.8,82,0.00,,,0.02,WUHU21623XXSP,2013-07-02 01:03:00,
2013-07-01 21:08:00,75.1,69.3,29.95,SSE,156,5.8,7.8,82,0.00,,,0.02,WUHU21623XXSP,2013-07-02 01:08:00,
2013-07-01 21:13:00,75.1,69.3,29.96,ESE,112,2.5,7.8,82,0.00,,,0.02,WUHU21623XXSP,2013-07-02 01:13:00,
2013-07-01 21:18:00,74.9,69.1,29.96,South,169,3.3,6.7,82,0.00,,,0.02,WUHU21623XXSP,2013-07-02 01:18:00,
2013-07-01 21:23:00,74.9,69.4,29.96,South,173,1.7,6.7,83,0.00,,,0.02,WUHU21623XXSP,2013-07-02 01:23:00,
2013-07-01 21:28:00,74.7,68.9,29.96,SE,135,2.2,6.5,82,0.00,,,0.02,WUHU21623XXSP,2013-07-02 01:28:00,
2013-07-01 21:33:00,74.7,68.9,29.96,SSE,157,0.0,2.2,82,0.00,,,0.02,WUHU21623XXSP,2013-07-02 01:33:00,
2013-07-01 21:38:00,74.7,68.9,29.96,SSE,155,2.7,4.5,82,0.00,,,0.02,WUHU21623XXSP,2013-07-02 01:38:00,
2013-07-01 21:43:00,74.7,68.9,29.96,SSE,157,0.0,7.8,82,0.00,,,0.02,WUHU21623XXSP,2013-07-02 01:43:00,
2013-07-01 21:48:00,74.7,68.9,29.96,SSE,163,3.6,7.8,82,0.00,,,0.02,WUHU21623XXSP,2013-07-02 01:48:00,
2013-07-01 21:53:00,74.7,69.3,29.97,South,176,2.8,6.7,83,0.00,,,0.02,WUHU21623XXSP,2013-07-02 01:53:00,
2013-07-01 21:58:00,74.5,69.1,29.97,SSE,157,4.6,5.6,83,0.00,,,0.02,WUHU21623XXSP,2013-07-02 01:58:00,
2013-07-01 22:03:00,74.5,69.1,29.97,SSE,157,1.4,5.6,83,0.00,,,0.02,WUHU21623XXSP,2013-07-02 02:03:00,
2013-07-01 22:08:00,74.5,69.1,29.97,SSE,157,0.0,7.2,83,0.00,,,0.02,WUHU21623XXSP,2013-07-02 02:08:00,
2013-07-01 22:13:00,74.5,69.1,29.97,SSE,157,0.0,0.9,83,0.00,,,0.02,WUHU21623XXSP,2013-07-02 02:13:00,
2013-07-01 22:18:00,74.5,69.1,29.97,SE,141,3.9,6.7,83,0.00,,,0.02,WUHU21623XXSP,2013-07-02 02:18:00,
2013-07-01 22:23:00,74.5,69.1,29.97,SE,139,2.1,6.9,83,0.00,,,0.02,WUHU21623XXSP,2013-07-02 02:23:00,
2013-07-01 22:28:00,74.5,69.1,29.97,SSW,202,6.0,6.9,83,0.00,,,0.02,WUHU21623XXSP,2013-07-02 02:28:00,
2013-07-01 22:33:00,74.5,69.1,29.97,East,90,4.0,6.0,83,0.00,,,0.02,WUHU21623XXSP,2013-07-02 02:33:00,
2013-07-01 22:38:00,74.5,69.4,29.97,SSE,164,2.7,7.2,84,0.00,,,0.02,WUHU21623XXSP,2013-07-02 02:38:00,
2013-07-01 22:43:00,74.5,69.4,29.97,South,180,0.0,7.2,84,0.00,,,0.02,WUHU21623XXSP,2013-07-02 02:43:00,
2013-07-01 22:48:00,74.5,69.4,29.98,South,180,0.0,3.8,84,0.00,,,0.02,WUHU21623XXSP,2013-07-02 02:48:00,
2013-07-01 22:53:00,74.5,69.4,29.98,SE,135,0.0,3.8,84,0.00,,,0.02,WUHU21623XXSP,2013-07-02 02:53:00,
2013-07-01 22:58:00,74.5,69.4,29.98,ESE,112,0.0,2.7,84,0.00,,,0.02,WUHU21623XXSP,2013-07-02 02:58:00,
2013-07-01 23:03:00,74.4,69.3,29.98,South,180,1.6,4.0,84,0.00,,,0.02,WUHU21623XXSP,2013-07-02 03:03:00,
2013-07-01 23:08:00,74.4,69.3,29.98,SSE,161,3.9,5.6,84,0.00,,,0.02,WUHU21623XXSP,2013-07-02 03:08:00,
2013-07-01 23:13:00,74.4,69.3,29.99,SE,135,4.9,5.6,84,0.00,,,0.02,WUHU21623XXSP,2013-07-02 03:13:00,
2013-07-01 23:18:00,74.4,69.3,29.99,SSE,152,0.4,5.1,84,0.00,,,0.02,WUHU21623XXSP,2013-07-02 03:18:00,
2013-07-01 23:23:00,74.2,69.1,29.99,South,180,2.2,5.1,84,0.00,,,0.02,WUHU21623XXSP,2013-07-02 03:23:00,
2013-07-01 23:28:00,74.2,69.1,29.99,SE,135,0.0,3.4,84,0.00,,,0.02,WUHU21623XXSP,2013-07-02 03:28:00,
2013-07-01 23:33:00,74.2,69.1,29.99,SSW,202,0.9,4.7,84,0.00,,,0.02,WUHU21623XXSP,2013-07-02 03:33:00,
2013-07-01 23:38:00,74.2,69.1,29.99,SE,135,0.0,4.7,84,0.00,,,0.02,WUHU21623XXSP,2013-07-02 03:38:00,
2013-07-01 23:43:00,74.2,69.1,29.99,SSW,202,1.1,4.0,84,0.00,,,0.02,WUHU21623XXSP,2013-07-02 03:43:00,
2013-07-01 23:48:00,74.2,69.1,29.99,SE,135,1.7,3.4,84,0.00,,,0.02,WUHU21623XXSP,2013-07-02 03:48:00,
2013-07-01 23:53:00,74.2,69.1,29.99,SE,135,0.0,2.9,84,0.00,,,0.02,WUHU21623XXSP,2013-07-02 03:53:00,
2013-07-01 23:58:00,74.2,69.1,29.99,SSE,157,1.3,6.9,84,0.00,,,0.02,WUHU21623XXSP,2013-07-02 03:58:00,